Terminal Aerodrome Forecast
Issued by NWS

Home | Current Version | Previous Version | Text Only | Print | Product List | Glossary On
Versions: 1 2 3 4 5 6 7 8 9 10 11 12 13 14
000
FTUS46 KSEW 301300 AAA
TAFOLM
TAF AMD
KOLM 301301Z 3013/3112 VRB03KT 1/4SM FG VV002
     FM301600 VRB03KT 2SM BR BKN002
     FM301700 36006KT P6SM SKC=

USA.gov is the U.S. government's official web portal to all federal, state and local government web resources and services.